AEZ2135 LICB-LIMZ
Flight info
| Callsign | AEZ2135 |
|---|---|
| Flight time | N/A |
| Altitude | 36000 |
| Route | ENEPA DCT DORAS DCT TINTO DCT DOBIM R16 GUNPI DCT LAGEN |
| Aircraft | B737/M-SDE2E3FGHIRWXY/LB1 |
Departure
| Time | N/A |
|---|---|
| Airport | Comiso Airport (LICB) |
Arrival
| Time | 2026-05-05 11:35 |
|---|---|
| Airport | Cuneo International Airport (LIMZ) |
| Time | Latitude | Longitude | Altitude | Speed | Heading |
|---|---|---|---|---|---|
| 2026-05-05 10:28 | 38.75220 | 13.50194 | 36133 ft | 428 kts | 333° |
| 2026-05-05 10:28 | 38.77994 | 13.48764 | 36119 ft | 429 kts | 333° |
| 2026-05-05 10:28 | 38.83509 | 13.45918 | 36119 ft | 431 kts | 333° |
| 2026-05-05 10:29 | 38.89081 | 13.43039 | 36112 ft | 432 kts | 333° |
| 2026-05-05 10:29 | 38.94664 | 13.40149 | 36112 ft | 433 kts | 333° |
| 2026-05-05 10:30 | 39.00252 | 13.37251 | 36116 ft | 433 kts | 333° |
| 2026-05-05 10:30 | 39.05801 | 13.34369 | 36116 ft | 433 kts | 333° |
| 2026-05-05 10:31 | 39.11375 | 13.31468 | 36113 ft | 433 kts | 333° |
| 2026-05-05 10:31 | 39.16956 | 13.28559 | 36114 ft | 432 kts | 333° |
| 2026-05-05 10:32 | 39.22524 | 13.25652 | 36111 ft | 431 kts | 333° |
| 2026-05-05 10:32 | 39.28084 | 13.22743 | 36118 ft | 431 kts | 332° |
| 2026-05-05 10:33 | 39.33604 | 13.19850 | 36120 ft | 431 kts | 332° |
| 2026-05-05 10:33 | 39.39162 | 13.16933 | 36112 ft | 431 kts | 332° |
| 2026-05-05 10:34 | 39.44713 | 13.14014 | 36111 ft | 430 kts | 332° |
| 2026-05-05 10:34 | 39.50259 | 13.11092 | 36110 ft | 430 kts | 332° |
| 2026-05-05 10:35 | 39.55765 | 13.08187 | 36113 ft | 430 kts | 332° |
| 2026-05-05 10:35 | 39.61107 | 13.04829 | 36100 ft | 422 kts | 321° |
| 2026-05-05 10:36 | 39.65719 | 13.00188 | 36101 ft | 419 kts | 316° |
| 2026-05-05 10:36 | 39.70271 | 12.95445 | 36106 ft | 420 kts | 316° |
| 2026-05-05 10:37 | 39.74810 | 12.90741 | 36102 ft | 420 kts | 317° |
| 2026-05-05 10:37 | 39.79396 | 12.86011 | 36103 ft | 421 kts | 317° |
| 2026-05-05 10:38 | 39.83980 | 12.81287 | 36106 ft | 422 kts | 317° |
| 2026-05-05 10:38 | 39.88580 | 12.76540 | 36100 ft | 422 kts | 316° |
| 2026-05-05 10:39 | 39.93182 | 12.71783 | 36097 ft | 422 kts | 316° |
| 2026-05-05 10:39 | 39.97753 | 12.67049 | 36102 ft | 423 kts | 316° |
| 2026-05-05 10:40 | 40.02359 | 12.62270 | 36088 ft | 423 kts | 316° |
| 2026-05-05 10:40 | 40.06962 | 12.57485 | 36091 ft | 423 kts | 316° |
| 2026-05-05 10:41 | 40.11565 | 12.52692 | 36106 ft | 423 kts | 316° |
| 2026-05-05 10:41 | 40.16139 | 12.47921 | 36091 ft | 424 kts | 316° |
| 2026-05-05 10:42 | 40.23043 | 12.40703 | 36089 ft | 424 kts | 316° |
| 2026-05-05 10:43 | 40.27651 | 12.35875 | 36090 ft | 424 kts | 316° |
| 2026-05-05 10:43 | 40.32258 | 12.31039 | 36088 ft | 424 kts | 315° |
| 2026-05-05 10:44 | 40.36835 | 12.26226 | 36084 ft | 425 kts | 315° |
| 2026-05-05 10:44 | 40.41442 | 12.21373 | 36082 ft | 425 kts | 315° |
| 2026-05-05 10:45 | 40.46048 | 12.16511 | 36081 ft | 425 kts | 315° |
| 2026-05-05 10:45 | 40.50653 | 12.11643 | 36075 ft | 425 kts | 315° |
| 2026-05-05 10:46 | 40.55225 | 12.06800 | 36072 ft | 425 kts | 315° |
| 2026-05-05 10:46 | 40.59826 | 12.01917 | 36073 ft | 425 kts | 315° |
| 2026-05-05 10:47 | 40.64427 | 11.97027 | 36080 ft | 425 kts | 315° |
| 2026-05-05 10:47 | 40.69027 | 11.92127 | 36069 ft | 425 kts | 315° |
| 2026-05-05 10:48 | 40.73618 | 11.87229 | 36069 ft | 426 kts | 315° |
| 2026-05-05 10:48 | 40.78188 | 11.82343 | 36066 ft | 426 kts | 314° |
| 2026-05-05 10:49 | 40.82792 | 11.77413 | 36062 ft | 426 kts | 314° |
| 2026-05-05 10:49 | 40.87401 | 11.72468 | 36058 ft | 427 kts | 314° |
| 2026-05-05 10:50 | 40.91992 | 11.67533 | 36063 ft | 428 kts | 314° |
| 2026-05-05 10:50 | 40.96618 | 11.62551 | 36059 ft | 429 kts | 314° |
| 2026-05-05 10:51 | 41.01245 | 11.57558 | 36057 ft | 431 kts | 314° |
| 2026-05-05 10:51 | 41.05896 | 11.52531 | 36059 ft | 432 kts | 314° |
| 2026-05-05 10:52 | 41.10558 | 11.47483 | 36056 ft | 433 kts | 314° |
| 2026-05-05 10:52 | 41.15200 | 11.42446 | 36056 ft | 435 kts | 314° |
| 2026-05-05 10:53 | 41.19883 | 11.37355 | 36048 ft | 435 kts | 314° |
| 2026-05-05 10:53 | 41.24570 | 11.32251 | 36047 ft | 436 kts | 314° |
| 2026-05-05 10:54 | 41.29257 | 11.27137 | 36046 ft | 436 kts | 314° |
| 2026-05-05 10:54 | 41.33943 | 11.22013 | 36048 ft | 436 kts | 314° |
| 2026-05-05 10:55 | 41.38597 | 11.16914 | 36044 ft | 436 kts | 314° |
| 2026-05-05 10:55 | 41.43280 | 11.11773 | 36039 ft | 436 kts | 314° |
| 2026-05-05 10:56 | 41.47976 | 11.06644 | 36034 ft | 438 kts | 317° |
| 2026-05-05 10:56 | 41.53067 | 11.02091 | 36033 ft | 442 kts | 321° |
| 2026-05-05 10:57 | 41.58208 | 10.97689 | 36032 ft | 442 kts | 321° |
| 2026-05-05 10:57 | 41.63375 | 10.93233 | 36028 ft | 442 kts | 321° |
| 2026-05-05 10:58 | 41.68519 | 10.88754 | 36026 ft | 442 kts | 321° |
| 2026-05-05 10:58 | 41.73671 | 10.84243 | 36021 ft | 443 kts | 321° |
| 2026-05-05 10:59 | 41.78826 | 10.79718 | 36019 ft | 443 kts | 321° |
| 2026-05-05 10:59 | 41.83951 | 10.75212 | 36014 ft | 444 kts | 321° |
| 2026-05-05 11:00 | 41.89115 | 10.70663 | 36006 ft | 444 kts | 320° |
| 2026-05-05 11:00 | 41.94282 | 10.66103 | 36010 ft | 445 kts | 320° |
| 2026-05-05 11:01 | 41.99452 | 10.61532 | 36006 ft | 445 kts | 320° |
| 2026-05-05 11:01 | 42.04624 | 10.56949 | 35996 ft | 445 kts | 320° |
| 2026-05-05 11:02 | 42.09763 | 10.52387 | 36000 ft | 446 kts | 320° |
| 2026-05-05 11:02 | 42.14938 | 10.47784 | 35990 ft | 446 kts | 320° |
| 2026-05-05 11:03 | 42.20111 | 10.43173 | 35990 ft | 446 kts | 320° |
| 2026-05-05 11:03 | 42.25284 | 10.38554 | 35985 ft | 446 kts | 320° |
| 2026-05-05 11:04 | 42.30420 | 10.33957 | 35991 ft | 446 kts | 320° |
| 2026-05-05 11:04 | 42.35591 | 10.29322 | 35992 ft | 446 kts | 320° |
| 2026-05-05 11:05 | 42.40751 | 10.24685 | 35981 ft | 446 kts | 320° |
| 2026-05-05 11:05 | 42.45923 | 10.20028 | 35982 ft | 446 kts | 320° |
| 2026-05-05 11:06 | 42.51095 | 10.15363 | 35979 ft | 447 kts | 320° |
| 2026-05-05 11:06 | 42.56233 | 10.10719 | 35983 ft | 447 kts | 320° |
| 2026-05-05 11:07 | 42.61407 | 10.06032 | 35982 ft | 447 kts | 320° |
| 2026-05-05 11:07 | 42.66584 | 10.01334 | 35982 ft | 448 kts | 320° |
| 2026-05-05 11:08 | 42.71762 | 9.96624 | 35982 ft | 448 kts | 320° |
| 2026-05-05 11:08 | 42.76842 | 9.91995 | 35983 ft | 448 kts | 320° |
| 2026-05-05 11:09 | 42.81986 | 9.87297 | 35982 ft | 448 kts | 320° |
| 2026-05-05 11:09 | 42.87164 | 9.82559 | 35977 ft | 448 kts | 320° |
| 2026-05-05 11:10 | 42.92305 | 9.77761 | 35979 ft | 445 kts | 315° |
| 2026-05-05 11:10 | 42.96389 | 9.71666 | 35989 ft | 430 kts | 298° |
| 2026-05-05 11:11 | 42.99048 | 9.64532 | 35995 ft | 423 kts | 289° |
| 2026-05-05 11:11 | 43.01472 | 9.57203 | 35983 ft | 424 kts | 289° |
| 2026-05-05 11:12 | 43.03949 | 9.49889 | 35981 ft | 424 kts | 290° |
| 2026-05-05 11:12 | 43.06434 | 9.42568 | 35980 ft | 425 kts | 289° |
| 2026-05-05 11:13 | 43.08896 | 9.35280 | 35982 ft | 425 kts | 289° |
| 2026-05-05 11:13 | 43.11372 | 9.27928 | 35980 ft | 426 kts | 289° |
| 2026-05-05 11:14 | 43.14451 | 9.20957 | 35987 ft | 440 kts | 308° |
| 2026-05-05 11:14 | 43.16766 | 9.18174 | 35974 ft | 450 kts | 319° |
| 2026-05-05 11:14 | 43.19529 | 9.16085 | 35982 ft | 460 kts | 330° |
| 2026-05-05 11:15 | 43.25526 | 9.12844 | 35984 ft | 464 kts | 333° |
| 2026-05-05 11:15 | 43.31555 | 9.09725 | 35976 ft | 464 kts | 333° |
| 2026-05-05 11:16 | 43.37541 | 9.06535 | 35979 ft | 465 kts | 332° |
| 2026-05-05 11:16 | 43.43553 | 9.03257 | 35979 ft | 465 kts | 332° |
| 2026-05-05 11:17 | 43.49564 | 8.99955 | 35976 ft | 465 kts | 332° |
| 2026-05-05 11:17 | 43.55579 | 8.96643 | 35975 ft | 466 kts | 332° |
| 2026-05-05 11:18 | 43.61558 | 8.93348 | 35975 ft | 466 kts | 332° |
| 2026-05-05 11:18 | 43.67580 | 8.90024 | 35975 ft | 466 kts | 332° |
| 2026-05-05 11:19 | 43.73601 | 8.86692 | 35972 ft | 466 kts | 332° |
| 2026-05-05 11:19 | 43.79621 | 8.83354 | 35969 ft | 466 kts | 332° |
| 2026-05-05 11:19 | 43.82627 | 8.81684 | 35803 ft | 469 kts | 332° |
| 2026-05-05 11:20 | 43.85648 | 8.79999 | 35050 ft | 474 kts | 332° |
| 2026-05-05 11:20 | 43.88698 | 8.78302 | 34305 ft | 473 kts | 332° |
| 2026-05-05 11:20 | 43.91763 | 8.76594 | 33399 ft | 474 kts | 332° |
| 2026-05-05 11:20 | 43.94821 | 8.74890 | 32451 ft | 475 kts | 332° |
| 2026-05-05 11:21 | 43.97894 | 8.73174 | 31511 ft | 475 kts | 332° |
| 2026-05-05 11:21 | 44.00957 | 8.71462 | 30554 ft | 476 kts | 332° |
| 2026-05-05 11:21 | 44.04037 | 8.69738 | 29459 ft | 477 kts | 332° |
| 2026-05-05 11:21 | 44.07102 | 8.68020 | 28247 ft | 477 kts | 332° |
| 2026-05-05 11:22 | 44.10148 | 8.66311 | 27131 ft | 477 kts | 332° |
| 2026-05-05 11:22 | 44.13192 | 8.64605 | 26372 ft | 469 kts | 332° |
| 2026-05-05 11:22 | 44.16209 | 8.62912 | 25522 ft | 464 kts | 332° |
| 2026-05-05 11:22 | 44.19176 | 8.61243 | 24712 ft | 458 kts | 333° |
| 2026-05-05 11:23 | 44.22122 | 8.59583 | 23902 ft | 453 kts | 333° |
| 2026-05-05 11:23 | 44.25030 | 8.57941 | 22984 ft | 450 kts | 333° |
| 2026-05-05 11:23 | 44.27922 | 8.56306 | 22092 ft | 445 kts | 333° |
| 2026-05-05 11:23 | 44.30766 | 8.54697 | 21257 ft | 439 kts | 333° |
| 2026-05-05 11:24 | 44.33552 | 8.53120 | 20455 ft | 434 kts | 333° |
| 2026-05-05 11:24 | 44.36331 | 8.51546 | 19658 ft | 430 kts | 333° |
| 2026-05-05 11:24 | 44.39026 | 8.49805 | 18852 ft | 420 kts | 323° |
| 2026-05-05 11:24 | 44.41198 | 8.47199 | 17975 ft | 409 kts | 307° |
| 2026-05-05 11:25 | 44.43050 | 8.44231 | 17099 ft | 403 kts | 306° |
| 2026-05-05 11:25 | 44.44866 | 8.41259 | 16272 ft | 398 kts | 306° |
| 2026-05-05 11:25 | 44.46656 | 8.38337 | 15492 ft | 394 kts | 307° |
| 2026-05-05 11:25 | 44.48443 | 8.35444 | 14723 ft | 390 kts | 307° |
| 2026-05-05 11:26 | 44.50205 | 8.32614 | 14303 ft | 378 kts | 307° |
| 2026-05-05 11:26 | 44.51879 | 8.29942 | 14138 ft | 361 kts | 307° |
| 2026-05-05 11:26 | 44.53514 | 8.27330 | 13969 ft | 345 kts | 307° |
| 2026-05-05 11:26 | 44.55044 | 8.24885 | 13830 ft | 330 kts | 307° |
| 2026-05-05 11:27 | 44.56523 | 8.22517 | 13680 ft | 317 kts | 307° |
| 2026-05-05 11:27 | 44.57948 | 8.20231 | 13457 ft | 307 kts | 307° |
| 2026-05-05 11:27 | 44.59342 | 8.17984 | 13045 ft | 304 kts | 307° |
| 2026-05-05 11:27 | 44.60725 | 8.15750 | 12641 ft | 301 kts | 307° |
| 2026-05-05 11:28 | 44.62089 | 8.13542 | 12239 ft | 299 kts | 307° |
| 2026-05-05 11:28 | 44.63452 | 8.11338 | 11839 ft | 298 kts | 307° |
| 2026-05-05 11:28 | 44.64802 | 8.09155 | 11528 ft | 294 kts | 307° |
| 2026-05-05 11:28 | 44.66112 | 8.07038 | 11401 ft | 283 kts | 307° |
| 2026-05-05 11:29 | 44.67381 | 8.04987 | 11249 ft | 273 kts | 307° |
| 2026-05-05 11:29 | 44.68624 | 8.02975 | 10892 ft | 273 kts | 307° |
| 2026-05-05 11:29 | 44.69851 | 8.00990 | 10573 ft | 271 kts | 307° |
| 2026-05-05 11:29 | 44.71098 | 7.98973 | 10244 ft | 270 kts | 307° |
| 2026-05-05 11:30 | 44.72311 | 7.97009 | 9913 ft | 268 kts | 307° |
| 2026-05-05 11:30 | 44.73515 | 7.95061 | 9758 ft | 259 kts | 307° |
| 2026-05-05 11:30 | 44.74677 | 7.93169 | 9609 ft | 250 kts | 303° |
| 2026-05-05 11:30 | 44.75363 | 7.91055 | 9473 ft | 231 kts | 275° |
| 2026-05-05 11:31 | 44.75297 | 7.88799 | 8992 ft | 233 kts | 253° |
| 2026-05-05 11:31 | 44.74659 | 7.86687 | 8446 ft | 241 kts | 239° |
| 2026-05-05 11:31 | 44.73769 | 7.84674 | 7892 ft | 250 kts | 236° |
| 2026-05-05 11:31 | 44.72778 | 7.82568 | 7302 ft | 261 kts | 236° |
| 2026-05-05 11:32 | 44.71759 | 7.80377 | 6647 ft | 274 kts | 237° |
| 2026-05-05 11:32 | 44.70723 | 7.78116 | 5955 ft | 284 kts | 237° |
| 2026-05-05 11:32 | 44.69511 | 7.75874 | 5395 ft | 280 kts | 223° |
| 2026-05-05 11:32 | 44.68077 | 7.74262 | 5223 ft | 255 kts | 215° |
| 2026-05-05 11:33 | 44.66659 | 7.72973 | 5206 ft | 228 kts | 212° |
| 2026-05-05 11:33 | 44.65303 | 7.71783 | 4337 ft | 242 kts | 213° |
| 2026-05-05 11:33 | 44.63807 | 7.70445 | 3324 ft | 262 kts | 213° |
| 2026-05-05 11:33 | 44.62307 | 7.69099 | 2907 ft | 251 kts | 213° |
| 2026-05-05 11:34 | 44.60882 | 7.67822 | 2578 ft | 236 kts | 213° |
| 2026-05-05 11:34 | 44.59564 | 7.66639 | 2260 ft | 219 kts | 213° |
| 2026-05-05 11:34 | 44.58323 | 7.65527 | 1938 ft | 205 kts | 213° |
| 2026-05-05 11:34 | 44.57164 | 7.64487 | 1677 ft | 190 kts | 213° |
| 2026-05-05 11:35 | 44.56119 | 7.63550 | 1413 ft | 170 kts | 213° |
| 2026-05-05 11:35 | 44.55186 | 7.62711 | 1249 ft | 146 kts | 213° |
| 2026-05-05 11:35 | 44.54587 | 7.62166 | 1265 ft | 58 kts | 213° |
| 2026-05-05 11:35 | 44.54309 | 7.61928 | 1266 ft | 33 kts | 211° |
| 2026-05-05 11:36 | 44.54129 | 7.61769 | 1265 ft | 30 kts | 214° |
| 2026-05-05 11:36 | 44.54021 | 7.61632 | 1269 ft | 4 kts | 273° |
| 2026-05-05 11:36 | 44.54053 | 7.61593 | 1269 ft | 14 kts | 339° |
| 2026-05-05 11:36 | 44.54183 | 7.61562 | 1266 ft | 21 kts | 14° |
| 2026-05-05 11:37 | 44.54311 | 7.61663 | 1266 ft | 21 kts | 31° |
| 2026-05-05 11:37 | 44.54442 | 7.61776 | 1265 ft | 23 kts | 32° |
| 2026-05-05 11:37 | 44.54569 | 7.61892 | 1262 ft | 20 kts | 30° |
| 2026-05-05 11:37 | 44.54656 | 7.61886 | 1255 ft | 7 kts | 320° |
| 2026-05-05 11:38 | 44.54698 | 7.61861 | 1257 ft | 1 kts | 352° |